Time;durP1;ratioP1;P1;durP2;ratioP2;P2;SDS_P1;SDS_P2;PMS_P1;PMS_P2;Temp;Humidity;BMP_temperature;BMP_pressure;BME280_temperature;BME280_humidity;BME280_pressure;Samples;Min_cycle;Max_cycle;Signal;HPM_P1;HPM_P2
2023/01/24 00:01:19;;;;;;;;;;;3.00;99.90;;;;;;5048961;28;20403;-71
2023/01/24 00:03:45;;;;;;;;;;;3.00;99.90;;;;;;4983113;28;137009;-70
2023/01/24 00:06:11;;;;;;;;;;;3.00;99.90;;;;;;5043822;28;19920;-70
2023/01/24 00:08:37;;;;;;;;;;;3.00;99.90;;;;;;5014496;28;212656;-70
2023/01/24 00:11:07;;;;;;;;;;;3.00;99.90;;;;;;5027524;28;19925;-71
2023/01/24 00:13:33;;;;;;;;;;;3.00;99.90;;;;;;4981204;28;211324;-70
2023/01/24 00:16:19;;;;;;;;;;;3.00;99.90;;;;;;5043651;28;19936;-71
2023/01/24 00:18:45;;;;;;;;;;;3.00;99.90;;;;;;4996307;28;208957;-71
2023/01/24 00:21:21;;;;;;;;;;;3.00;99.90;;;;;;5035264;28;20901;-71
2023/01/24 00:23:49;;;;;;;;;;;3.00;99.90;;;;;;5007330;28;222462;-71
2023/01/24 00:26:17;;;;;;;;;;;3.00;99.90;;;;;;5066432;28;19921;-70
2023/01/24 00:28:43;;;;;;;;;;;3.00;99.90;;;;;;5030803;28;211259;-71
2023/01/24 00:31:10;;;;;;;;;;;3.00;99.90;;;;;;5045400;28;19919;-71
2023/01/24 00:33:36;;;;;;;;;;;3.00;99.90;;;;;;4990872;28;277702;-71
2023/01/24 00:36:02;;;;;;;;;;;3.00;99.90;;;;;;5044109;28;19920;-71
2023/01/24 00:38:29;;;;;;;;;;;3.00;99.90;;;;;;4992481;28;208778;-71
2023/01/24 00:40:55;;;;;;;;;;;3.00;99.90;;;;;;5034456;28;19929;-71
2023/01/24 00:43:21;;;;;;;;;;;3.00;99.90;;;;;;4985778;28;221204;-71
2023/01/24 00:45:47;;;;;;;;;;;2.90;99.90;;;;;;5041276;28;20530;-71
2023/01/24 00:48:13;;;;;;;;;;;3.00;99.90;;;;;;4984211;28;227528;-71
2023/01/24 00:50:39;;;;;;;;;;;3.00;99.90;;;;;;5038573;28;19928;-71
2023/01/24 00:53:05;;;;;;;;;;;3.00;99.90;;;;;;5014795;28;209261;-72
2023/01/24 00:55:32;;;;;;;;;;;2.90;99.90;;;;;;5064983;28;19935;-71
2023/01/24 00:57:57;;;;;;;;;;;3.00;99.90;;;;;;4979294;28;210664;-71
2023/01/24 01:00:23;;;;;;;;;;;2.90;99.90;;;;;;5037729;28;20639;-71
2023/01/24 01:02:50;;;;;;;;;;;2.90;99.90;;;;;;4976244;28;35508;-71
2023/01/24 01:05:16;;;;;;;;;;;3.00;99.90;;;;;;5052691;28;19946;-72
2023/01/24 01:07:42;;;;;;;;;;;2.90;99.90;;;;;;5003421;28;218021;-71
2023/01/24 01:10:09;;;;;;;;;;;3.00;99.90;;;;;;5057218;28;19935;-71
2023/01/24 01:12:35;;;;;;;;;;;3.00;99.90;;;;;;5024817;28;210328;-71
2023/01/24 01:15:01;;;;;;;;;;;2.90;99.90;;;;;;5040997;28;19931;-70
2023/01/24 01:17:27;;;;;;;;;;;3.00;99.90;;;;;;5044863;28;209530;-70
2023/01/24 01:19:52;;;;;;;;;;;3.00;99.90;;;;;;5020041;28;172753;-71
2023/01/24 01:22:19;;;;;;;;;;;2.90;99.90;;;;;;5064814;28;19952;-70
2023/01/24 01:24:45;;;;;;;;;;;2.90;99.90;;;;;;5012549;28;208911;-70
2023/01/24 01:27:11;;;;;;;;;;;3.00;99.90;;;;;;5043149;28;20369;-72
2023/01/24 01:29:37;;;;;;;;;;;2.90;99.90;;;;;;4996333;28;174465;-72
2023/01/24 01:32:03;;;;;;;;;;;2.90;99.90;;;;;;5046656;28;20300;-71
2023/01/24 01:34:29;;;;;;;;;;;2.90;99.90;;;;;;4989242;28;208337;-70
2023/01/24 01:36:55;;;;;;;;;;;2.90;99.90;;;;;;5029373;28;20981;-70
2023/01/24 01:39:21;;;;;;;;;;;2.90;99.90;;;;;;4975765;28;200379;-71
2023/01/24 01:41:47;;;;;;;;;;;2.90;99.90;;;;;;5028962;28;20011;-70
2023/01/24 01:44:41;;;;;;;;;;;3.00;99.90;;;;;;4988708;28;180889;-71
2023/01/24 01:47:19;;;;;;;;;;;2.90;99.90;;;;;;5039213;28;19928;-71
2023/01/24 01:49:57;;;;;;;;;;;2.90;99.90;;;;;;4981329;28;222249;-70
2023/01/24 01:52:25;;;;;;;;;;;3.00;99.90;;;;;;5046102;28;19951;-71
2023/01/24 01:54:53;;;;;;;;;;;2.90;99.90;;;;;;4982143;28;158083;-71
2023/01/24 01:57:20;;;;;;;;;;;2.90;99.90;;;;;;5058074;28;19924;-71
2023/01/24 01:59:53;;;;;;;;;;;2.90;99.90;;;;;;5010979;28;64543;-70
2023/01/24 02:02:20;;;;;;;;;;;2.90;99.90;;;;;;5043185;28;19944;-72
2023/01/24 02:04:47;;;;;;;;;;;2.90;99.90;;;;;;4985203;28;206484;-72
2023/01/24 02:07:13;;;;;;;;;;;2.90;99.90;;;;;;5062694;28;20483;-71
2023/01/24 02:09:43;;;;;;;;;;;2.90;99.90;;;;;;5012230;28;227669;-71
2023/01/24 02:12:11;;;;;;;;;;;2.90;99.90;;;;;;5061089;28;19928;-71
2023/01/24 02:17:23;;;;;;;;;;;2.90;99.90;;;;;;5048357;28;19929;-71
2023/01/24 02:19:59;;;;;;;;;;;2.90;99.90;;;;;;4972910;28;206850;-70
2023/01/24 02:22:32;;;;;;;;;;;2.90;99.90;;;;;;5014383;28;208673;-70
2023/01/24 02:25:21;;;;;;;;;;;2.90;99.90;;;;;;5010062;28;206201;-71
2023/01/24 02:27:47;;;;;;;;;;;2.90;99.90;;;;;;4966613;28;230234;-71
2023/01/24 02:30:13;;;;;;;;;;;2.90;99.90;;;;;;5059742;28;19955;-71
2023/01/24 02:32:39;;;;;;;;;;;2.90;99.90;;;;;;4998786;28;208671;-71
2023/01/24 02:35:05;;;;;;;;;;;2.90;99.90;;;;;;5061457;28;20553;-71
2023/01/24 02:37:32;;;;;;;;;;;2.90;99.90;;;;;;5020430;28;208082;-71
2023/01/24 02:40:01;;;;;;;;;;;2.90;99.90;;;;;;5018331;28;206267;-72
2023/01/24 02:42:32;;;;;;;;;;;2.90;99.90;;;;;;5014691;28;209704;-72
2023/01/24 02:45:05;;;;;;;;;;;2.90;99.90;;;;;;5014646;28;19939;-72
2023/01/24 02:47:33;;;;;;;;;;;2.90;99.90;;;;;;5029032;28;207477;-72
2023/01/24 02:50:00;;;;;;;;;;;2.90;99.90;;;;;;4996369;28;32393;-72
2023/01/24 02:55:10;;;;;;;;;;;2.90;99.90;;;;;;5026189;28;208961;-70
2023/01/24 03:00:22;;;;;;;;;;;2.90;99.90;;;;;;5060856;28;20416;-70
2023/01/24 03:02:48;;;;;;;;;;;2.90;99.90;;;;;;4981981;28;208594;-71
2023/01/24 03:05:14;;;;;;;;;;;2.90;99.90;;;;;;5058106;28;19920;-71
2023/01/24 03:07:44;;;;;;;;;;;2.90;99.90;;;;;;4994107;28;209177;-71
2023/01/24 03:10:11;;;;;;;;;;;2.90;99.90;;;;;;5059316;28;19920;-70
2023/01/24 03:34:57;;;;;;;;;;;2.90;99.90;;;;;;4994019;28;209407;-71
2023/01/24 03:40:12;;;;;;;;;;;2.90;99.90;;;;;;4995912;28;208832;-72
2023/01/24 03:42:50;;;;;;;;;;;2.90;99.90;;;;;;5004170;28;215088;-71
2023/01/24 03:45:24;;;;;;;;;;;2.90;99.90;;;;;;5043340;28;19921;-71
2023/01/24 03:48:04;;;;;;;;;;;2.90;99.90;;;;;;4997560;28;188154;-71
2023/01/24 03:53:16;;;;;;;;;;;2.90;99.90;;;;;;5013050;28;209146;-71
2023/01/24 03:55:43;;;;;;;;;;;2.90;99.90;;;;;;5048181;28;19928;-71
2023/01/24 03:58:09;;;;;;;;;;;2.90;99.90;;;;;;5006473;28;109195;-71
2023/01/24 04:00:35;;;;;;;;;;;2.90;99.90;;;;;;5066988;28;19928;-71
2023/01/24 04:03:01;;;;;;;;;;;2.90;99.90;;;;;;4999840;28;209511;-71
2023/01/24 04:05:27;;;;;;;;;;;2.90;99.90;;;;;;5057973;28;19932;-71
2023/01/24 04:07:54;;;;;;;;;;;2.90;99.90;;;;;;5003229;28;208269;-72
2023/01/24 04:10:20;;;;;;;;;;;2.90;99.90;;;;;;5056181;28;19920;-71
2023/01/24 04:12:46;;;;;;;;;;;2.90;99.90;;;;;;4993194;28;209619;-71
2023/01/24 04:15:14;;;;;;;;;;;2.90;99.90;;;;;;5040915;28;19925;-70
2023/01/24 04:17:40;;;;;;;;;;;2.80;99.90;;;;;;5010714;28;208817;-71
2023/01/24 04:20:06;;;;;;;;;;;2.80;99.90;;;;;;5079738;28;19928;-71
2023/01/24 04:22:32;;;;;;;;;;;2.80;99.90;;;;;;5015906;28;206881;-71
2023/01/24 04:24:58;;;;;;;;;;;2.80;99.90;;;;;;5031088;28;19931;-70
2023/01/24 04:27:24;;;;;;;;;;;2.80;99.90;;;;;;5061170;28;19920;-71
2023/01/24 04:29:50;;;;;;;;;;;2.80;99.90;;;;;;5006581;28;212786;-71
2023/01/24 04:32:16;;;;;;;;;;;2.80;99.90;;;;;;5059997;28;19929;-71
2023/01/24 04:34:42;;;;;;;;;;;2.90;99.90;;;;;;5016178;28;211724;-72
2023/01/24 04:37:08;;;;;;;;;;;2.90;99.90;;;;;;5066289;28;19924;-70
2023/01/24 04:39:33;;;;;;;;;;;2.90;99.90;;;;;;4976241;28;208524;-71
2023/01/24 04:41:59;;;;;;;;;;;2.90;99.90;;;;;;5043149;28;19921;-71
2023/01/24 04:44:25;;;;;;;;;;;2.90;99.90;;;;;;5026121;28;209169;-71
2023/01/24 04:46:51;;;;;;;;;;;2.90;99.90;;;;;;5041334;28;20432;-71
2023/01/24 04:49:17;;;;;;;;;;;2.90;99.90;;;;;;4996990;28;79781;-71
2023/01/24 04:51:46;;;;;;;;;;;2.90;99.90;;;;;;5050706;28;20579;-71
2023/01/24 04:54:11;;;;;;;;;;;2.90;99.90;;;;;;5022606;28;214369;-71
2023/01/24 04:56:37;;;;;;;;;;;2.90;99.90;;;;;;5050796;28;19932;-71
2023/01/24 04:59:04;;;;;;;;;;;2.90;99.90;;;;;;5007158;28;211698;-70
2023/01/24 05:01:30;;;;;;;;;;;2.90;99.90;;;;;;5036766;28;19932;-71
2023/01/24 05:03:58;;;;;;;;;;;2.90;99.90;;;;;;4992272;28;211439;-71
2023/01/24 05:06:28;;;;;;;;;;;2.90;99.90;;;;;;5041885;28;19927;-71
2023/01/24 05:08:54;;;;;;;;;;;2.90;99.90;;;;;;5030808;28;56234;-72
2023/01/24 05:11:21;;;;;;;;;;;2.90;99.90;;;;;;5061203;28;19932;-71
2023/01/24 05:13:47;;;;;;;;;;;2.90;99.90;;;;;;5001867;28;112598;-70
2023/01/24 05:16:13;;;;;;;;;;;2.90;99.90;;;;;;5033629;28;19921;-71
2023/01/24 05:18:39;;;;;;;;;;;2.90;99.90;;;;;;5002468;28;35706;-71
2023/01/24 05:21:06;;;;;;;;;;;2.90;99.90;;;;;;5070256;28;19924;-71
2023/01/24 05:23:31;;;;;;;;;;;2.90;99.90;;;;;;5008212;28;209263;-70
2023/01/24 05:25:58;;;;;;;;;;;2.90;99.90;;;;;;5040808;28;19975;-71
2023/01/24 05:28:24;;;;;;;;;;;2.80;99.90;;;;;;4973405;28;157547;-70
2023/01/24 05:30:50;;;;;;;;;;;2.80;99.90;;;;;;5045244;28;20615;-71
2023/01/24 05:33:16;;;;;;;;;;;2.80;99.90;;;;;;4999835;28;173404;-71
2023/01/24 05:35:44;;;;;;;;;;;2.80;99.90;;;;;;5041516;28;19975;-70
2023/01/24 05:38:10;;;;;;;;;;;2.80;99.90;;;;;;4981161;28;80652;-70
2023/01/24 05:40:36;;;;;;;;;;;2.80;99.90;;;;;;5021657;28;19936;-71
2023/01/24 05:43:02;;;;;;;;;;;2.80;99.90;;;;;;5016176;28;218363;-71
2023/01/24 05:45:28;;;;;;;;;;;2.80;99.90;;;;;;5085649;28;19924;-72
2023/01/24 05:47:55;;;;;;;;;;;2.80;99.90;;;;;;4994453;28;212908;-71
2023/01/24 05:50:21;;;;;;;;;;;2.80;99.90;;;;;;5072608;28;19932;-71
2023/01/24 05:52:47;;;;;;;;;;;2.80;99.90;;;;;;5013971;28;206937;-70
2023/01/24 05:55:12;;;;;;;;;;;2.80;99.90;;;;;;5055168;28;19924;-72
2023/01/24 05:57:38;;;;;;;;;;;2.80;99.90;;;;;;4985606;28;215512;-71
2023/01/24 06:00:05;;;;;;;;;;;2.80;99.90;;;;;;5057077;28;19929;-72
2023/01/24 06:02:30;;;;;;;;;;;2.80;99.90;;;;;;5014836;28;219212;-71
2023/01/24 06:04:56;;;;;;;;;;;2.80;99.90;;;;;;4982590;28;19920;-71
2023/01/24 06:07:22;;;;;;;;;;;2.80;99.90;;;;;;5027062;28;19929;-72
2023/01/24 06:09:48;;;;;;;;;;;2.80;99.90;;;;;;4985987;28;212814;-71
2023/01/24 06:12:14;;;;;;;;;;;2.80;99.90;;;;;;5045584;28;19948;-71
2023/01/24 06:14:40;;;;;;;;;;;2.80;99.90;;;;;;4976549;28;231434;-71
2023/01/24 06:17:06;;;;;;;;;;;2.70;99.90;;;;;;5067461;28;20018;-72
2023/01/24 06:19:32;;;;;;;;;;;2.80;99.90;;;;;;4998352;28;206677;-71
2023/01/24 06:22:17;;;;;;;;;;;2.80;99.90;;;;;;5043318;28;19920;-72
2023/01/24 06:24:43;;;;;;;;;;;2.70;99.90;;;;;;4980281;28;100242;-71
2023/01/24 06:27:09;;;;;;;;;;;2.80;99.90;;;;;;5045117;28;20277;-72
2023/01/24 06:29:35;;;;;;;;;;;2.70;99.90;;;;;;5004938;28;31997;-71
2023/01/24 06:32:19;;;;;;;;;;;2.80;99.90;;;;;;5063064;28;19925;-71
2023/01/24 06:35:07;;;;;;;;;;;2.80;99.90;;;;;;4977567;28;207889;-71
2023/01/24 06:37:37;;;;;;;;;;;2.80;99.90;;;;;;4999655;28;213051;-69
2023/01/24 06:40:06;;;;;;;;;;;2.70;99.90;;;;;;5044376;28;214915;-71
2023/01/24 06:42:32;;;;;;;;;;;2.80;99.90;;;;;;5004280;28;208964;-70
2023/01/24 06:44:58;;;;;;;;;;;2.80;99.90;;;;;;5022916;28;19924;-71
2023/01/24 06:47:26;;;;;;;;;;;2.80;99.90;;;;;;5051889;28;19920;-70
2023/01/24 06:49:52;;;;;;;;;;;2.80;99.90;;;;;;4989707;28;204419;-71
2023/01/24 06:52:18;;;;;;;;;;;2.80;99.90;;;;;;5051799;28;20470;-70
2023/01/24 06:54:44;;;;;;;;;;;2.80;99.90;;;;;;4958463;28;142681;-71
2023/01/24 06:57:10;;;;;;;;;;;2.80;99.90;;;;;;5043857;28;19924;-71
2023/01/24 06:59:36;;;;;;;;;;;2.80;99.90;;;;;;5007644;28;205924;-71
2023/01/24 07:02:02;;;;;;;;;;;2.80;99.90;;;;;;5044357;28;19928;-71
2023/01/24 07:04:28;;;;;;;;;;;2.70;99.90;;;;;;4991796;28;207537;-71
2023/01/24 07:06:54;;;;;;;;;;;2.80;99.90;;;;;;5062193;28;19925;-73
2023/01/24 07:09:20;;;;;;;;;;;2.70;99.90;;;;;;5025406;28;210749;-71
2023/01/24 07:11:52;;;;;;;;;;;2.80;99.90;;;;;;5045925;28;19931;-71
2023/01/24 07:14:18;;;;;;;;;;;2.70;99.90;;;;;;5011131;28;214241;-71
2023/01/24 07:16:44;;;;;;;;;;;2.70;99.90;;;;;;5030912;28;19935;-70
2023/01/24 07:19:13;;;;;;;;;;;2.70;99.90;;;;;;4977269;28;91184;-71
2023/01/24 07:21:39;;;;;;;;;;;2.70;99.90;;;;;;5059139;28;20004;-71
2023/01/24 07:24:09;;;;;;;;;;;2.70;99.90;;;;;;5022519;28;208918;-71
2023/01/24 07:26:35;;;;;;;;;;;2.70;99.90;;;;;;5045905;28;19924;-71
2023/01/24 07:29:01;;;;;;;;;;;2.70;99.90;;;;;;5007639;28;208238;-71
2023/01/24 07:31:27;;;;;;;;;;;2.70;99.90;;;;;;5043272;28;19939;-71
2023/01/24 07:33:53;;;;;;;;;;;2.70;99.90;;;;;;5017033;28;46471;-71
2023/01/24 07:36:19;;;;;;;;;;;2.70;99.90;;;;;;5048346;28;20304;-71
2023/01/24 07:38:45;;;;;;;;;;;2.70;99.90;;;;;;4997510;28;211944;-71
2023/01/24 07:41:11;;;;;;;;;;;2.70;99.90;;;;;;5043182;28;19932;-71
2023/01/24 07:43:37;;;;;;;;;;;2.70;99.90;;;;;;5004410;28;175218;-71
2023/01/24 07:46:03;;;;;;;;;;;2.70;99.90;;;;;;5049002;28;19934;-71
2023/01/24 07:48:30;;;;;;;;;;;2.70;99.90;;;;;;5003012;28;206483;-71
2023/01/24 07:50:59;;;;;;;;;;;2.70;99.90;;;;;;5072691;28;19924;-71
2023/01/24 07:53:25;;;;;;;;;;;2.70;99.90;;;;;;4985497;28;206599;-71
2023/01/24 07:55:51;;;;;;;;;;;2.70;99.90;;;;;;5057643;28;19936;-71
2023/01/24 07:58:17;;;;;;;;;;;2.70;99.90;;;;;;5006348;28;210692;-70
2023/01/24 08:00:44;;;;;;;;;;;2.60;99.90;;;;;;5057724;28;19932;-71
2023/01/24 08:03:10;;;;;;;;;;;2.70;99.90;;;;;;5007582;28;115937;-72
2023/01/24 08:05:37;;;;;;;;;;;2.70;99.90;;;;;;5025980;28;20448;-69
2023/01/24 08:08:03;;;;;;;;;;;2.70;99.90;;;;;;4987449;28;155923;-72
2023/01/24 08:10:29;;;;;;;;;;;2.70;99.90;;;;;;5031755;28;19920;-71
2023/01/24 08:12:55;;;;;;;;;;;2.70;99.90;;;;;;4982291;28;206942;-71
2023/01/24 08:15:21;;;;;;;;;;;2.70;99.90;;;;;;5056826;28;19924;-72
2023/01/24 08:17:47;;;;;;;;;;;2.70;99.90;;;;;;4995844;28;214444;-71
2023/01/24 08:20:13;;;;;;;;;;;2.70;99.90;;;;;;5054231;28;20220;-71
2023/01/24 08:22:39;;;;;;;;;;;2.70;99.90;;;;;;5004388;28;208166;-70
2023/01/24 08:25:05;;;;;;;;;;;2.70;99.90;;;;;;5044546;28;19925;-71
2023/01/24 08:27:31;;;;;;;;;;;2.70;99.90;;;;;;5040010;28;208931;-71
2023/01/24 08:29:57;;;;;;;;;;;2.70;99.90;;;;;;5054665;28;66162;-71
2023/01/24 08:32:23;;;;;;;;;;;2.70;99.90;;;;;;5065209;28;19928;-71
2023/01/24 08:34:49;;;;;;;;;;;2.70;99.90;;;;;;5002440;28;184335;-71
2023/01/24 08:37:16;;;;;;;;;;;2.70;99.90;;;;;;5069339;28;19932;-71
2023/01/24 08:39:41;;;;;;;;;;;2.70;99.90;;;;;;5027098;28;209192;-71
2023/01/24 08:42:08;;;;;;;;;;;2.70;99.90;;;;;;5067597;28;19920;-71
2023/01/24 08:44:34;;;;;;;;;;;2.70;99.90;;;;;;5002278;28;202180;-71
2023/01/24 08:47:00;;;;;;;;;;;2.70;99.90;;;;;;5048805;28;20293;-71
2023/01/24 08:49:26;;;;;;;;;;;2.70;99.90;;;;;;4984888;28;139260;-71
2023/01/24 08:51:58;;;;;;;;;;;2.70;99.90;;;;;;5041483;28;19932;-71
2023/01/24 08:54:27;;;;;;;;;;;2.70;99.90;;;;;;5011475;28;173103;-71
2023/01/24 08:56:53;;;;;;;;;;;2.70;99.90;;;;;;5052576;28;19928;-72
2023/01/24 08:59:19;;;;;;;;;;;2.80;99.90;;;;;;5004921;28;84605;-71
2023/01/24 09:01:45;;;;;;;;;;;2.80;99.90;;;;;;5051164;28;19920;-71
2023/01/24 09:04:12;;;;;;;;;;;2.70;99.90;;;;;;4998772;28;215219;-71
2023/01/24 09:06:38;;;;;;;;;;;2.80;99.90;;;;;;5067739;28;19920;-71
2023/01/24 09:09:04;;;;;;;;;;;2.80;99.90;;;;;;5003489;28;215753;-71
2023/01/24 09:11:30;;;;;;;;;;;2.80;99.90;;;;;;5046162;28;19924;-70
2023/01/24 09:13:56;;;;;;;;;;;2.80;99.90;;;;;;4996726;28;211817;-71
2023/01/24 09:16:22;;;;;;;;;;;2.80;99.90;;;;;;5057170;28;19928;-72
2023/01/24 09:18:51;;;;;;;;;;;2.70;99.90;;;;;;4990516;28;228223;-71
2023/01/24 09:21:17;;;;;;;;;;;2.80;99.90;;;;;;5049545;28;19921;-70
2023/01/24 09:23:43;;;;;;;;;;;2.80;99.90;;;;;;4996361;28;209242;-71
2023/01/24 09:26:09;;;;;;;;;;;2.80;99.90;;;;;;5036455;28;19928;-72
2023/01/24 09:28:36;;;;;;;;;;;2.90;99.90;;;;;;5004364;28;208413;-71
2023/01/24 09:31:01;;;;;;;;;;;2.80;99.90;;;;;;5058869;28;19921;-71
2023/01/24 09:33:28;;;;;;;;;;;2.90;99.90;;;;;;5001814;28;208567;-71
2023/01/24 09:35:55;;;;;;;;;;;2.90;99.90;;;;;;5061572;28;19925;-72
2023/01/24 09:38:22;;;;;;;;;;;2.90;99.90;;;;;;4990762;28;208467;-72
2023/01/24 09:40:56;;;;;;;;;;;2.90;99.90;;;;;;5058548;28;20493;-71
2023/01/24 09:43:41;;;;;;;;;;;2.90;99.90;;;;;;4999125;28;203529;-71
2023/01/24 09:46:37;;;;;;;;;;;3.00;99.90;;;;;;5068223;28;19928;-71
2023/01/24 09:49:15;;;;;;;;;;;3.00;99.90;;;;;;4994664;28;66744;-71
2023/01/24 09:51:43;;;;;;;;;;;3.00;99.90;;;;;;5070484;28;19924;-71
2023/01/24 09:54:13;;;;;;;;;;;3.00;99.90;;;;;;5000562;28;220770;-71
2023/01/24 09:56:41;;;;;;;;;;;3.00;99.90;;;;;;5068426;28;19920;-71
2023/01/24 09:59:16;;;;;;;;;;;3.10;99.90;;;;;;4997862;28;213091;-70
2023/01/24 10:01:42;;;;;;;;;;;3.00;99.90;;;;;;5049124;28;19924;-70
2023/01/24 10:04:19;;;;;;;;;;;3.10;99.90;;;;;;4985663;28;205912;-70
2023/01/24 10:06:55;;;;;;;;;;;3.00;99.90;;;;;;5045985;28;19920;-71
2023/01/24 10:09:44;;;;;;;;;;;3.10;99.90;;;;;;5019168;28;209221;-70
2023/01/24 10:12:18;;;;;;;;;;;3.00;99.90;;;;;;5064007;28;19924;-71
2023/01/24 10:14:53;;;;;;;;;;;3.10;99.90;;;;;;5006713;28;122652;-70
2023/01/24 10:17:26;;;;;;;;;;;3.10;99.90;;;;;;5047984;28;19932;-71
2023/01/24 10:20:07;;;;;;;;;;;3.10;99.90;;;;;;5030589;28;138298;-70
2023/01/24 10:22:52;;;;;;;;;;;3.10;99.90;;;;;;5011878;28;207789;-70
2023/01/24 10:25:21;;;;;;;;;;;3.10;99.90;;;;;;5051363;28;19929;-71
2023/01/24 10:27:50;;;;;;;;;;;3.10;99.90;;;;;;5008255;28;211756;-71
2023/01/24 10:30:17;;;;;;;;;;;3.20;99.90;;;;;;5031729;28;19928;-72
2023/01/24 10:32:46;;;;;;;;;;;3.20;99.90;;;;;;4995462;28;207596;-72
2023/01/24 10:35:19;;;;;;;;;;;3.20;99.90;;;;;;5043981;28;20374;-72
2023/01/24 10:37:47;;;;;;;;;;;3.20;99.90;;;;;;4985816;28;209245;-71
2023/01/24 10:40:14;;;;;;;;;;;3.20;99.90;;;;;;5043452;28;19932;-70
2023/01/24 10:42:40;;;;;;;;;;;3.30;99.90;;;;;;4983691;28;212745;-71
2023/01/24 10:45:18;;;;;;;;;;;3.30;99.90;;;;;;5057989;28;19925;-70
2023/01/24 10:47:56;;;;;;;;;;;3.30;99.90;;;;;;4990114;28;208198;-71
2023/01/24 10:50:23;;;;;;;;;;;3.20;99.90;;;;;;5055217;28;19929;-71
2023/01/24 10:52:49;;;;;;;;;;;3.30;99.90;;;;;;4995465;28;207998;-70
2023/01/24 10:55:21;;;;;;;;;;;3.30;99.90;;;;;;5013305;28;19924;-71
2023/01/24 10:57:52;;;;;;;;;;;3.40;99.90;;;;;;5011041;28;210972;-71
2023/01/24 11:00:22;;;;;;;;;;;3.40;99.90;;;;;;5057406;28;19920;-72
2023/01/24 11:02:50;;;;;;;;;;;3.40;99.90;;;;;;5001354;28;208386;-70
2023/01/24 11:05:16;;;;;;;;;;;3.40;99.90;;;;;;5066354;28;19931;-71
2023/01/24 11:08:08;;;;;;;;;;;3.40;99.90;;;;;;5020039;28;209499;-72
2023/01/24 11:10:35;;;;;;;;;;;3.50;99.90;;;;;;5032535;28;19928;-72
2023/01/24 11:13:02;;;;;;;;;;;3.50;99.90;;;;;;5001068;28;209531;-71
2023/01/24 11:15:33;;;;;;;;;;;3.50;99.90;;;;;;5055715;28;19931;-71
2023/01/24 11:18:04;;;;;;;;;;;3.50;99.90;;;;;;5003578;28;208817;-72
2023/01/24 11:20:31;;;;;;;;;;;3.50;99.90;;;;;;5022660;28;19943;-72
2023/01/24 11:23:04;;;;;;;;;;;3.50;99.90;;;;;;4983673;28;248938;-72
2023/01/24 11:25:30;;;;;;;;;;;3.50;99.90;;;;;;5061881;28;20398;-71
2023/01/24 11:27:56;;;;;;;;;;;3.50;99.90;;;;;;4998338;28;212417;-71
2023/01/24 11:30:22;;;;;;;;;;;3.50;99.90;;;;;;5029013;28;19935;-70
2023/01/24 11:33:05;;;;;;;;;;;3.50;99.90;;;;;;4992947;28;208838;-70
2023/01/24 11:35:35;;;;;;;;;;;3.50;99.90;;;;;;5051940;28;20385;-70
2023/01/24 11:38:20;;;;;;;;;;;3.50;99.90;;;;;;4995266;28;209201;-71
2023/01/24 11:40:49;;;;;;;;;;;3.50;99.90;;;;;;5054184;28;19929;-71
2023/01/24 11:43:33;;;;;;;;;;;3.50;99.90;;;;;;4996278;28;211836;-71
2023/01/24 11:45:59;;;;;;;;;;;3.50;99.90;;;;;;5050065;28;20278;-71
2023/01/24 11:48:29;;;;;;;;;;;3.50;99.90;;;;;;4995097;28;206242;-70
2023/01/24 11:51:15;;;;;;;;;;;3.50;99.90;;;;;;5027474;28;19925;-70
2023/01/24 11:54:02;;;;;;;;;;;3.50;99.90;;;;;;4993992;28;62409;-71
2023/01/24 11:56:47;;;;;;;;;;;3.50;99.90;;;;;;5050109;28;19924;-70
2023/01/24 11:59:13;;;;;;;;;;;3.60;99.90;;;;;;5014729;28;215725;-71
2023/01/24 12:01:44;;;;;;;;;;;3.60;99.90;;;;;;5062565;28;19925;-72
2023/01/24 12:04:16;;;;;;;;;;;3.50;99.90;;;;;;5001908;28;207175;-70
2023/01/24 12:06:49;;;;;;;;;;;3.50;99.90;;;;;;5042734;28;19925;-71
2023/01/24 12:09:18;;;;;;;;;;;3.50;99.90;;;;;;4992458;28;207272;-71
2023/01/24 12:11:48;;;;;;;;;;;3.60;99.90;;;;;;5044847;28;19928;-70
2023/01/24 12:14:32;;;;;;;;;;;3.60;99.90;;;;;;5014504;28;210597;-71
2023/01/24 12:17:17;;;;;;;;;;;3.60;99.90;;;;;;5050959;28;19921;-71
2023/01/24 12:20:02;;;;;;;;;;;3.60;99.90;;;;;;5002256;28;208873;-71
2023/01/24 12:22:28;;;;;;;;;;;3.70;99.90;;;;;;5009639;28;209311;-71
2023/01/24 12:24:57;;;;;;;;;;;3.70;99.90;;;;;;4985553;28;174591;-71
2023/01/24 12:27:25;;;;;;;;;;;3.70;99.90;;;;;;5024360;28;19932;-71
2023/01/24 12:30:14;;;;;;;;;;;3.70;99.90;;;;;;4993239;28;239524;-71
2023/01/24 12:32:45;;;;;;;;;;;3.70;99.90;;;;;;4992003;28;211837;-71
2023/01/24 12:35:19;;;;;;;;;;;3.60;99.90;;;;;;5049616;28;19921;-71
2023/01/24 12:37:48;;;;;;;;;;;3.60;99.90;;;;;;4966847;28;216470;-70
2023/01/24 12:40:14;;;;;;;;;;;3.60;99.90;;;;;;5024057;28;20444;-71
2023/01/24 12:42:47;;;;;;;;;;;3.60;99.90;;;;;;4988726;28;216040;-70
2023/01/24 12:45:25;;;;;;;;;;;3.60;99.90;;;;;;5039631;28;19936;-72
2023/01/24 12:47:51;;;;;;;;;;;3.60;99.90;;;;;;4999627;28;212103;-71
2023/01/24 12:50:24;;;;;;;;;;;3.60;99.90;;;;;;5046680;28;19921;-70
2023/01/24 12:52:50;;;;;;;;;;;3.60;99.90;;;;;;4990359;28;32934;-71
2023/01/24 12:55:22;;;;;;;;;;;3.60;99.90;;;;;;5046864;28;19967;-71
2023/01/24 12:58:00;;;;;;;;;;;3.60;99.90;;;;;;5022389;28;230185;-71
2023/01/24 13:00:32;;;;;;;;;;;3.60;99.90;;;;;;5052247;28;19920;-71
2023/01/24 13:03:13;;;;;;;;;;;3.50;99.90;;;;;;4988411;28;215548;-71
2023/01/24 13:05:39;;;;;;;;;;;3.50;99.90;;;;;;5054623;28;19920;-71
2023/01/24 13:08:23;;;;;;;;;;;3.50;99.90;;;;;;5009038;28;215298;-71
2023/01/24 13:11:09;;;;;;;;;;;3.50;99.90;;;;;;5058201;28;19920;-70
2023/01/24 13:13:40;;;;;;;;;;;3.40;99.90;;;;;;5007742;28;209621;-70
2023/01/24 13:16:25;;;;;;;;;;;3.40;99.90;;;;;;5045474;28;19932;-71
2023/01/24 13:19:03;;;;;;;;;;;3.40;99.90;;;;;;4977378;28;242582;-71
2023/01/24 13:21:50;;;;;;;;;;;3.40;99.90;;;;;;5020322;28;20258;-71
2023/01/24 13:24:28;;;;;;;;;;;3.40;99.90;;;;;;5002359;28;208594;-72
2023/01/24 13:27:07;;;;;;;;;;;3.40;99.90;;;;;;5041974;28;20675;-71
2023/01/24 13:29:45;;;;;;;;;;;3.40;99.90;;;;;;5009319;28;47419;-71
2023/01/24 13:32:13;;;;;;;;;;;3.40;99.90;;;;;;5068578;28;19936;-71
2023/01/24 13:34:44;;;;;;;;;;;3.40;99.90;;;;;;4967741;28;135929;-70
2023/01/24 13:37:33;;;;;;;;;;;3.40;99.90;;;;;;5030391;28;20305;-71
2023/01/24 13:40:06;;;;;;;;;;;3.40;99.90;;;;;;4987215;28;210060;-71
2023/01/24 13:42:33;;;;;;;;;;;3.40;99.90;;;;;;5037759;28;208711;-71
2023/01/24 13:45:19;;;;;;;;;;;3.40;99.90;;;;;;5012319;28;20261;-71
2023/01/24 13:47:45;;;;;;;;;;;3.30;99.90;;;;;;5019275;28;210398;-71
2023/01/24 13:50:13;;;;;;;;;;;3.30;99.90;;;;;;5041109;28;20359;-71
2023/01/24 13:52:40;;;;;;;;;;;3.30;99.90;;;;;;5001351;28;211818;-72
2023/01/24 13:55:21;;;;;;;;;;;3.30;99.90;;;;;;5036376;28;20683;-71
2023/01/24 13:58:06;;;;;;;;;;;3.30;99.90;;;;;;4968496;28;208611;-70
2023/01/24 14:00:32;;;;;;;;;;;3.30;99.90;;;;;;5013271;28;20036;-71
2023/01/24 14:03:03;;;;;;;;;;;3.30;99.90;;;;;;4970136;28;217705;-72
2023/01/24 14:05:29;;;;;;;;;;;3.30;99.90;;;;;;5032605;28;20468;-70
2023/01/24 14:07:55;;;;;;;;;;;3.30;99.90;;;;;;4983721;28;206985;-71
2023/01/24 14:11:00;;;;;;;;;;;3.30;99.90;;;;;;5050536;28;19932;-72
2023/01/24 14:13:44;;;;;;;;;;;3.30;99.90;;;;;;4963384;28;170946;-70
2023/01/24 14:16:11;;;;;;;;;;;3.30;99.90;;;;;;4997116;28;19921;-71
2023/01/24 14:18:40;;;;;;;;;;;3.30;99.90;;;;;;4947847;28;211141;-70
2023/01/24 14:21:13;;;;;;;;;;;3.20;99.90;;;;;;5010893;28;19926;-71
2023/01/24 14:23:39;;;;;;;;;;;3.20;99.90;;;;;;4974357;28;119778;-70
2023/01/24 14:26:05;;;;;;;;;;;3.20;99.90;;;;;;5003323;28;19925;-71
2023/01/24 14:28:40;;;;;;;;;;;3.20;99.90;;;;;;4934517;28;206657;-71
2023/01/24 14:31:13;;;;;;;;;;;3.20;99.90;;;;;;5002045;28;19934;-71
2023/01/24 14:33:43;;;;;;;;;;;3.20;99.90;;;;;;4982013;28;29737;-70
2023/01/24 14:36:13;;;;;;;;;;;3.20;99.90;;;;;;4992687;28;20395;-71
2023/01/24 14:38:39;;;;;;;;;;;3.20;99.90;;;;;;4961654;28;100714;-71
2023/01/24 14:41:15;;;;;;;;;;;3.20;99.90;;;;;;5001278;28;19948;-71
2023/01/24 14:43:41;;;;;;;;;;;3.10;99.90;;;;;;4960734;28;131429;-71
2023/01/24 14:46:11;;;;;;;;;;;3.10;99.90;;;;;;5064449;28;19927;-71
2023/01/24 14:48:37;;;;;;;;;;;3.00;99.90;;;;;;5012394;28;211989;-71
2023/01/24 14:51:04;;;;;;;;;;;3.00;99.90;;;;;;5069231;28;19920;-70
2023/01/24 14:53:31;;;;;;;;;;;3.00;99.90;;;;;;5004971;28;157406;-71
2023/01/24 14:56:01;;;;;;;;;;;3.00;99.90;;;;;;5068345;28;19924;-71
2023/01/24 14:58:28;;;;;;;;;;;3.00;99.90;;;;;;4981347;28;208579;-73
2023/01/24 15:00:58;;;;;;;;;;;3.00;99.90;;;;;;5033035;28;19925;-70
2023/01/24 15:03:34;;;;;;;;;;;3.00;99.90;;;;;;4976232;28;204060;-71
2023/01/24 15:06:05;;;;;;;;;;;2.90;99.90;;;;;;5044793;28;20303;-70
2023/01/24 15:08:33;;;;;;;;;;;2.90;99.90;;;;;;4988385;28;139969;-69
2023/01/24 15:11:04;;;;;;;;;;;2.90;99.90;;;;;;5054510;28;19924;-69
2023/01/24 15:13:34;;;;;;;;;;;2.80;99.90;;;;;;5009500;28;149228;-70